1Q5 weather

Gravelly Valley Airport
Upper Lake, California, United States

Public forecast

Using degrees Fahrenheit for public forecast. Weather courtesy of forecast.io.

Closest aviation weather report (METAR) to Gravelly Valley Airport

Closest report is Ukiah Municipal Airport, 22.6 nm (41.8 km) SSW. Retrieved 2019/10/23 18:56 UTC (1 hour ago):

KUKI 231856Z AUTO 00000KT 10SM CLR 26/07 A3003 RMK AO2 SLP163 T02560067

Closest aviation forecast (TAF) to Gravelly Valley Airport

Closest forecast is Ukiah Municipal Airport, 22.6 nm (41.8 km) SSW. Retrieved 2019/10/23 18:39 UTC (1 hour ago):

TAF KUKI 231735Z 2318/2418 VRB03KT P6SM SKC FM232100 35008KT P6SM SKC FM240300 VRB04KT P6SM SKC WS020/06030KT